Weather History for KPTS - October, 2012

Change the Weather History Date:

Wednesday, October 31, 2012

  Actual Average (KJLN) Record (KJLN)
Temperature  
Mean Temperature 46 °F 55 °F  
Max Temperature 60 °F 66 °F 83 °F (1950)
Min Temperature 33 °F 44 °F 18 °F (1993)
Degree Days  
Heating Degree Days 18 11  
Month to date heating degree days 211  
Since 1 July heating degree days 252  
Cooling Degree Days 0 1  
Month to date cooling degree days 49  
Year to date cooling degree days 1691  
Moisture  
Dew Point 33 °F    
Average Humidity 64    
Maximum Humidity 100    
Minimum Humidity 35    
Precipitation  
Precipitation 0.00 in 0.13 in 1.84 in (2005)
Month to date precipitation 4.03  
Year to date precipitation 39.95  
Sea Level Pressure  
Sea Level Pressure 30.02 in    
Wind  
Wind Speed 2 mph (NNE)    
Max Wind Speed 7 mph    
Max Gust Speed -    
Visibility 10 miles    
Events      
T = Trace of Precipitation, MM = Missing Value Source: NWS Daily Summary

Daily Weather History Graph

Daily Weather History Graph

Search for Another Location

Airport or City:

Trip Planner

Search our weather history database for the weather conditions in past years. The results will help you decide how hot, cold, wet, or windy it might be!

Date:

Astronomy

Oct. 31, 2012 Rise Set
Actual Time 7:43 AM CDT 6:21 PM CDT
Civil Twilight 7:16 AM CDT 6:48 PM CDT
Nautical Twilight 6:45 AM CDT 7:19 PM CDT
Astronomical Twilight 6:14 AM CDT 7:49 PM CDT
Moon 7:35 PM CDT (10/31) 9:22 AM CDT (10/31)
Length of Visible Light 11h 32m
Length of Day
10h 38m
Full, 97% of the Moon is Illuminated
Oct 31
Full
Nov 6
Last Quarter
Nov 13
New
Nov 20
First Quarter
Nov 28
Full

Hourly Weather History & Observations

Time (CDT) Temp. Windchill Dew Point Humidity Pressure Visibility Wind Dir Wind Speed Gust Speed Precip Events Conditions
12:15 AM 42.4 °F 40.7 °F 32.2 °F 67% 29.98 in 10.0 mi NE 3.5 mph - N/A   Clear
12:35 AM 42.8 °F 41.1 °F 32.0 °F 66% 29.98 in 10.0 mi NE 3.5 mph - N/A   Clear
12:55 AM 42.3 °F 38.6 °F 31.8 °F 67% 29.98 in 10.0 mi NE 5.8 mph - N/A   Clear
1:15 AM 42.4 °F 38.1 °F 31.5 °F 65% 29.99 in 10.0 mi NE 6.9 mph - N/A   Clear
1:35 AM 42.8 °F 38.6 °F 30.9 °F 63% 29.99 in 10.0 mi NE 6.9 mph - N/A   Clear
1:55 AM 42.1 °F 37.7 °F 30.9 °F 65% 30.00 in 10.0 mi NE 6.9 mph - N/A   Clear
2:15 AM 41.5 °F 38.6 °F 30.9 °F 66% 30.00 in 10.0 mi NE 4.6 mph - N/A   Clear
2:35 AM 41.4 °F 39.4 °F 30.6 °F 65% 30.00 in 10.0 mi NE 3.5 mph - N/A   Scattered Clouds
2:55 AM 41.4 °F 39.4 °F 30.9 °F 66% 30.00 in 10.0 mi NNE 3.5 mph - N/A   Mostly Cloudy
3:15 AM 41.4 °F 38.4 °F 30.9 °F 66% 30.01 in 10.0 mi NE 4.6 mph - N/A   Mostly Cloudy
3:35 AM 40.8 °F 37.8 °F 30.4 °F 66% 30.01 in 10.0 mi NE 4.6 mph - N/A   Scattered Clouds
3:55 AM 39.9 °F 37.8 °F 29.8 °F 67% 30.01 in 10.0 mi NE 3.5 mph - N/A   Clear
4:15 AM 40.1 °F - 28.9 °F 64% 30.01 in 10.0 mi Calm Calm - N/A   Clear
4:35 AM 39.9 °F - 28.8 °F 64% 30.01 in 10.0 mi Calm Calm - N/A   Clear
4:55 AM 38.1 °F - 28.9 °F 70% 30.00 in 10.0 mi Calm Calm - N/A   Clear
5:15 AM 36.3 °F - 29.8 °F 77% 30.00 in 10.0 mi Calm Calm - N/A   Clear
5:35 AM 34.7 °F - 31.3 °F 87% 30.00 in 10.0 mi Calm Calm - N/A   Clear
5:55 AM 33.8 °F - 32.0 °F 93% 29.99 in 10.0 mi Calm Calm - N/A   Clear
6:15 AM 33.8 °F - 32.5 °F 95% 29.99 in 10.0 mi Calm Calm - N/A   Clear
6:35 AM 33.8 °F 30.8 °F 33.8 °F 100% 30.01 in 10.0 mi North 3.5 mph - N/A   Clear
6:55 AM 33.8 °F - 33.8 °F 100% 30.01 in 10.0 mi Calm Calm - N/A   Clear
7:15 AM 33.8 °F 30.8 °F 33.6 °F 99% 30.02 in 10.0 mi North 3.5 mph - N/A   Clear
7:35 AM 35.1 °F - 32.0 °F 89% 30.03 in 10.0 mi Calm Calm - N/A   Clear
7:55 AM 33.8 °F - 32.2 °F 94% 30.04 in 10.0 mi Calm Calm - N/A   Clear
8:15 AM 33.8 °F - 33.3 °F 98% 30.05 in 10.0 mi Calm Calm - N/A   Clear
8:35 AM 34.3 °F - 34.2 °F 99% 30.06 in 10.0 mi Calm Calm - N/A   Clear
8:55 AM 37.6 °F - 34.5 °F 89% 30.06 in 10.0 mi Calm Calm - N/A   Clear
9:15 AM 40.6 °F - 32.4 °F 72% 30.06 in 10.0 mi Calm Calm - N/A   Clear
9:35 AM 43.2 °F - 31.5 °F 63% 30.07 in 10.0 mi Calm Calm - N/A   Clear
9:55 AM 46.0 °F - 32.0 °F 58% 30.07 in 10.0 mi Calm Calm - N/A   Clear
10:15 AM 48.0 °F - 32.5 °F 55% 30.07 in 10.0 mi ENE 3.5 mph - N/A   Clear
10:35 AM 49.1 °F - 32.4 °F 53% 30.06 in 7.0 mi Calm Calm - N/A   Clear
10:55 AM 50.5 °F - 31.5 °F 48% 30.06 in 10.0 mi Calm Calm - N/A   Clear
11:15 AM 52.9 °F - 31.5 °F 44% 30.07 in 10.0 mi Calm Calm - N/A   Clear
11:35 AM 54.0 °F - 30.9 °F 41% 30.08 in 10.0 mi West 3.5 mph - N/A   Clear
11:55 AM 54.3 °F - 30.0 °F 39% 30.07 in 10.0 mi North 4.6 mph - N/A   Clear
12:15 PM 55.2 °F - 29.3 °F 37% 30.07 in 10.0 mi NNW 5.8 mph - N/A   Clear
12:35 PM 56.1 °F - 30.0 °F 37% 30.07 in 10.0 mi Calm Calm - N/A   Clear
12:55 PM 56.5 °F - 30.2 °F 37% 30.06 in 10.0 mi North 4.6 mph - N/A   Clear
1:15 PM 56.7 °F - 30.7 °F 37% 30.05 in 10.0 mi Calm Calm - N/A   Clear
1:35 PM 58.1 °F - 32.0 °F 37% 30.05 in 10.0 mi North 4.6 mph - N/A   Clear
1:55 PM 59.0 °F - 32.4 °F 37% 30.04 in 10.0 mi NNW 5.8 mph - N/A   Clear
2:15 PM 59.0 °F - 32.4 °F 37% 30.03 in 10.0 mi North 3.5 mph - N/A   Clear
2:55 PM 59.0 °F - 31.8 °F 36% 30.01 in 10.0 mi Calm Calm - N/A   Clear
3:15 PM 59.5 °F - 32.5 °F 36% 30.01 in 10.0 mi NNW 3.5 mph - N/A   Clear
3:35 PM 59.5 °F - 32.5 °F 36% 30.01 in 10.0 mi Calm Calm - N/A   Clear
3:55 PM 59.4 °F - 32.2 °F 36% 30.01 in 10.0 mi Calm Calm - N/A   Clear
4:15 PM 59.9 °F - 32.2 °F 35% 30.01 in 10.0 mi NW 4.6 mph - N/A   Clear
4:35 PM 60.1 °F - 32.7 °F 36% 30.01 in 10.0 mi Calm Calm - N/A   Clear
4:55 PM 59.4 °F - 32.9 °F 37% 30.01 in 10.0 mi NNW 3.5 mph - N/A   Clear
5:15 PM 59.0 °F - 33.4 °F 38% 30.00 in 10.0 mi Calm Calm - N/A   Clear
5:35 PM 59.0 °F - 33.8 °F 39% 30.00 in 10.0 mi Calm Calm - N/A   Clear
5:55 PM 59.0 °F - 34.0 °F 39% 30.00 in 10.0 mi Calm Calm - N/A   Clear
6:15 PM 57.4 °F - 34.2 °F 42% 30.00 in 10.0 mi Calm Calm - N/A   Clear
6:35 PM 55.4 °F - 34.9 °F 46% 30.01 in 10.0 mi Calm Calm - N/A   Clear
6:55 PM 52.5 °F - 35.1 °F 51% 30.01 in 10.0 mi Calm Calm - N/A   Clear
7:15 PM 49.1 °F - 36.1 °F 61% - 10.0 mi Calm Calm - N/A   Clear
7:35 PM 48.6 °F - 37.4 °F 65% 30.01 in 10.0 mi Calm Calm - N/A   Clear
7:55 PM 46.9 °F - 37.2 °F 69% 30.02 in 10.0 mi Calm Calm - N/A   Clear
8:15 PM 45.0 °F - 36.5 °F 72% 30.02 in 10.0 mi Calm Calm - N/A   Clear
8:35 PM 43.9 °F - 35.8 °F 73% 30.02 in 10.0 mi Calm Calm - N/A   Clear
8:55 PM 42.6 °F - 35.8 °F 77% 30.02 in 10.0 mi Calm Calm - N/A   Clear
9:15 PM 42.6 °F - 35.8 °F 77% 30.03 in 10.0 mi Calm Calm - N/A   Clear
9:35 PM 42.3 °F - 36.0 °F 78% 30.02 in 10.0 mi Calm Calm - N/A   Clear
9:55 PM 40.6 °F - 36.9 °F 86% 30.03 in 10.0 mi Calm Calm - N/A   Clear
10:15 PM 40.1 °F - 37.9 °F 92% 30.03 in 10.0 mi Calm Calm - N/A   Clear
10:35 PM 40.1 °F - 37.6 °F 91% 30.03 in 10.0 mi Calm Calm - N/A   Clear
10:55 PM 39.6 °F - 36.9 °F 90% 30.03 in 10.0 mi Calm Calm - N/A   Clear
11:15 PM 38.8 °F - 37.9 °F 97% 30.03 in 10.0 mi Calm Calm - N/A   Clear
11:35 PM 38.8 °F - 38.5 °F 99% 30.02 in 10.0 mi Calm Calm - N/A   Clear
11:55 PM 38.8 °F - 39.0 °F 100% 30.03 in 10.0 mi Calm Calm - N/A   Clear